Time;durP1;ratioP1;P1;durP2;ratioP2;P2;SDS_P1;SDS_P2;PMS_P1;PMS_P2;Temp;Humidity;BMP_temperature;BMP_pressure;BME280_temperature;BME280_humidity;BME280_pressure;Samples;Min_cycle;Max_cycle;Signal;HPM_P1;HPM_P2
2023/07/24 00:00:41;;;;;;;;;;;;;;;;;;;;;
2023/07/24 00:03:25;;;;;;;;;;;;;;;;;;;;;
2023/07/24 00:05:59;;;;;;;2.88;1.50;;;;;;;17.13;100.00;100374.22;4966909;28;20023;-95
2023/07/24 00:08:32;;;;;;;2.13;1.52;;;;;;;17.14;100.00;100375.91;4963264;28;20412;-95
2023/07/24 00:13:57;;;;;;;2.53;1.40;;;;;;;17.14;100.00;100369.84;4959730;28;20039;-96
2023/07/24 00:16:32;;;;;;;;;;;;;;;;;;;;;
2023/07/24 00:19:07;;;;;;;1.58;1.20;;;;;;;17.14;100.00;100362.78;4958056;28;20045;-95
2023/07/24 00:21:32;;;;;;;2.17;1.23;;;;;;;17.15;100.00;100371.53;4971655;28;20065;-94
2023/07/24 00:24:15;;;;;;;2.58;1.40;;;;;;;17.14;100.00;100360.16;4956562;28;20055;-95
2023/07/24 00:26:47;;;;;;;3.00;1.60;;;;;;;17.16;100.00;100354.81;4962550;28;20030;-94
2023/07/24 00:29:22;;;;;;;;;;;;;;;;;;;;;
2023/07/24 00:31:50;;;;;;;2.63;1.50;;;;;;;17.15;100.00;100347.88;4956102;28;20026;-94
2023/07/24 00:34:26;;;;;;;;;;;;;;;;;;;;;
2023/07/24 00:40:07;;;;;;;;;;;;;;;;;;;;;
2023/07/24 00:42:36;;;;;;;2.55;1.55;;;;;;;17.11;100.00;100344.56;4975313;28;20043;-96
2023/07/24 00:45:06;;;;;;;3.85;1.80;;;;;;;17.10;100.00;100327.09;4972172;28;20023;-94
2023/07/24 00:47:41;;;;;;;;;;;;;;;;;;;;;
2023/07/24 00:50:11;;;;;;;3.42;1.88;;;;;;;17.09;100.00;100322.78;4956237;29;20023;-93
2023/07/24 00:52:40;;;;;;;3.35;1.70;;;;;;;17.07;100.00;100326.44;4956117;28;20027;-94
2023/07/24 00:55:18;;;;;;;;;;;;;;;;;;;;;
2023/07/24 00:57:44;;;;;;;3.40;1.70;;;;;;;17.06;100.00;100320.38;4961229;28;20037;-94
2023/07/24 01:00:50;;;;;;;;;;;;;;;;;;;;;
2023/07/24 01:03:37;;;;;;;3.03;1.67;;;;;;;17.05;100.00;100318.69;4964771;28;20039;-95
2023/07/24 01:06:15;;;;;;;;;;;;;;;;;;;;;
2023/07/24 01:08:41;;;;;;;3.15;1.88;;;;;;;17.05;100.00;100318.69;4976915;28;20035;-94
2023/07/24 01:11:19;;;;;;;2.85;1.90;;;;;;;17.04;100.00;100314.34;4981234;28;20031;-94
2023/07/24 01:14:04;;;;;;;3.42;1.77;;;;;;;17.02;100.00;100303.09;4968809;28;20034;-95
2023/07/24 01:16:47;;;;;;;;;;;;;;;;;;;;;
2023/07/24 01:19:30;;;;;;;3.42;1.98;;;;;;;17.01;100.00;100288.25;4958049;28;20034;-94
2023/07/24 01:22:19;;;;;;;;;;;;;;;;;;;;;
2023/07/24 01:25:13;;;;;;;3.28;2.05;;;;;;;17.02;100.00;100292.59;4963265;28;20024;-95
2023/07/24 01:27:47;;;;;;;3.38;2.05;;;;;;;17.03;100.00;100293.41;4956344;28;20387;-94
2023/07/24 01:30:19;;;;;;;3.40;1.90;;;;;;;17.02;100.00;100282.06;4969250;28;20042;-94
2023/07/24 01:32:49;;;;;;;4.57;2.33;;;;;;;17.03;100.00;100282.91;4960259;28;20100;-95
2023/07/24 01:35:25;;;;;;;;;;;;;;;;;;;;;
2023/07/24 01:38:25;;;;;;;;;;;;;;;;;;;;;
2023/07/24 01:40:51;;;;;;;3.92;2.20;;;;;;;17.01;100.00;100269.88;4956248;28;20175;-93
2023/07/24 01:43:27;;;;;;;3.63;2.20;;;;;;;17.01;100.00;100264.63;4967248;28;20410;-94
2023/07/24 01:46:12;;;;;;;4.03;2.58;;;;;;;17.02;100.00;100260.19;4955184;28;20065;-96
2023/07/24 01:48:48;;;;;;;;;;;;;;;;;;;;;
2023/07/24 01:51:39;;;;;;;3.35;2.10;;;;;;;17.03;100.00;100265.38;4965590;28;20039;-94
2023/07/24 01:54:07;;;;;;;4.47;2.35;;;;;;;17.04;100.00;100272.31;4958393;28;20055;-94
2023/07/24 01:56:46;;;;;;;4.25;2.60;;;;;;;17.05;100.00;100268.75;4955202;28;20026;-95
2023/07/24 01:59:27;;;;;;;;;;;;;;;;;;;;;
2023/07/24 02:02:05;;;;;;;4.93;2.25;;;;;;;17.03;100.00;100252.22;4967118;28;20019;-96
2023/07/24 02:04:43;;;;;;;3.47;2.08;;;;;;;17.04;100.00;100259.16;4954834;28;20031;-95
2023/07/24 02:07:09;;;;;;;3.92;2.10;;;;;;;17.02;100.00;100244.41;4963742;28;20188;-94
2023/07/24 02:09:42;;;;;;;2.92;1.90;;;;;;;17.01;100.00;100246.22;4959690;28;20503;-94
2023/07/24 02:12:07;;;;;;;3.50;2.30;;;;;;;16.98;100.00;100234.13;4963685;28;20071;-93
2023/07/24 02:14:53;;;;;;;;;;;;;;;;;;;;;
2023/07/24 02:17:18;;;;;;;3.22;2.05;;;;;;;16.97;100.00;100227.19;4972025;28;20041;-93
2023/07/24 02:19:44;;;;;;;3.60;2.20;;;;;;;16.97;100.00;100224.56;4957335;28;20455;-93
2023/07/24 02:22:19;;;;;;;4.28;2.15;;;;;;;16.97;100.00;100226.31;4960974;28;20538;-94
2023/07/24 02:24:59;;;;;;;;;;;;;;;;;;;;;
2023/07/24 02:27:44;;;;;;;;;;;;;;;;;;;;;
2023/07/24 02:30:30;;;;;;;3.08;2.05;;;;;;;16.99;100.00;100219.19;4972130;28;20026;-96
2023/07/24 02:32:56;;;;;;;2.97;1.80;;;;;;;16.98;100.00;100228.00;4966603;28;20031;-93
2023/07/24 02:35:24;;;;;;;2.90;1.88;;;;;;;17.00;100.00;100223.50;4966830;28;20030;-94
2023/07/24 02:37:50;;;;;;;3.17;1.80;;;;;;;17.00;100.00;100215.63;4965611;28;20059;-93
2023/07/24 02:40:15;;;;;;;3.13;1.90;;;;;;;17.02;100.00;100221.63;4953201;28;20035;-94
2023/07/24 02:42:43;;;;;;;2.50;1.70;;;;;;;17.02;100.00;100218.13;4954546;28;20584;-92
2023/07/24 02:45:16;;;;;;;3.10;1.73;;;;;;;17.02;100.00;100224.25;4953331;28;20038;-96
2023/07/24 02:50:36;;;;;;;2.60;1.65;;;;;;;17.04;100.00;100218.88;4952741;28;20031;-94
2023/07/24 02:53:04;;;;;;;3.42;1.85;;;;;;;17.06;100.00;100217.88;4954217;28;20055;-93
2023/07/24 02:55:32;;;;;;;3.40;1.80;;;;;;;17.10;100.00;100231.66;4954711;28;20031;-93
2023/07/24 02:58:08;;;;;;;;;;;;;;;;;;;;;
2023/07/24 03:00:33;;;;;;;4.28;2.00;;;;;;;17.10;100.00;100221.97;4959326;28;20031;-92
2023/07/24 03:03:08;;;;;;;;;;;;;;;;;;;;;
2023/07/24 03:05:34;;;;;;;3.10;2.25;;;;;;;17.04;100.00;100196.09;4971638;28;20394;-93
2023/07/24 03:08:00;;;;;;;3.53;1.80;;;;;;;17.02;100.00;100218.13;4972509;28;20035;-93
2023/07/24 03:10:25;;;;;;;2.47;1.88;;;;;;;17.00;100.00;100223.50;4976129;28;20038;-92
2023/07/24 03:12:53;;;;;;;3.15;2.17;;;;;;;16.99;100.00;100234.94;4966547;28;20462;-92
2023/07/24 03:15:19;;;;;;;3.72;2.00;;;;;;;16.96;100.00;100222.88;4966780;28;20034;-93
2023/07/24 03:17:44;;;;;;;2.65;1.80;;;;;;;16.96;100.00;100224.63;4971423;28;20030;-92
2023/07/24 03:20:14;;;;;;;3.53;1.90;;;;;;;16.96;100.00;100225.50;4961865;28;20483;-91
2023/07/24 03:22:43;;;;;;;3.72;2.08;;;;;;;16.95;100.00;100207.19;4963555;28;20070;-94
2023/07/24 03:25:09;;;;;;;4.95;1.95;;;;;;;16.93;100.00;100206.38;4963384;28;20027;-90
2023/07/24 03:27:34;;;;;;;3.03;1.80;;;;;;;16.92;100.00;100191.56;4964234;28;20109;-89
2023/07/24 03:30:00;;;;;;;3.13;1.75;;;;;;;16.88;100.00;100180.41;4958296;28;20035;-92
2023/07/24 03:32:25;;;;;;;2.72;1.70;;;;;;;16.87;100.00;100183.16;4966316;28;20078;-94
2023/07/24 03:34:51;;;;;;;3.10;1.77;;;;;;;16.84;100.00;100210.44;4965754;28;20045;-91
2023/07/24 03:37:16;;;;;;;3.05;1.85;;;;;;;16.83;100.00;100209.59;4971257;28;20118;-91
2023/07/24 03:39:41;;;;;;;2.53;1.92;;;;;;;16.84;100.00;100219.19;4962346;28;20469;-89
2023/07/24 03:42:09;;;;;;;3.28;2.00;;;;;;;16.81;100.00;100206.22;4997519;28;20026;-91
2023/07/24 03:44:34;;;;;;;3.45;1.80;;;;;;;16.77;100.00;100204.72;4966302;28;20371;-90
2023/07/24 03:47:00;;;;;;;3.65;1.70;;;;;;;16.72;100.00;100193.69;4976745;28;20497;-90
2023/07/24 03:49:25;;;;;;;2.75;1.80;;;;;;;16.68;100.00;100205.31;4969782;28;20042;-90
2023/07/24 03:51:50;;;;;;;3.28;1.95;;;;;;;16.66;100.00;100207.19;4974024;28;20030;-93
2023/07/24 03:54:15;;;;;;;4.13;2.03;;;;;;;16.63;100.00;100199.47;4971303;28;20059;-91
2023/07/24 03:56:41;;;;;;;3.50;2.00;;;;;;;16.59;100.00;100195.34;4957823;28;20042;-93
2023/07/24 03:59:06;;;;;;;2.10;1.67;;;;;;;16.57;100.00;100197.25;4956844;28;20042;-91
2023/07/24 04:01:31;;;;;;;3.75;1.88;;;;;;;16.54;100.00;100199.13;4963324;28;20037;-92
2023/07/24 04:03:58;;;;;;;2.58;1.80;;;;;;;16.51;100.00;100204.56;4970042;28;20105;-93
2023/07/24 04:06:23;;;;;;;2.58;1.73;;;;;;;16.49;100.00;100200.31;4958649;28;20050;-91
2023/07/24 04:08:48;;;;;;;2.20;1.58;;;;;;;16.46;100.00;100198.75;4955425;28;20383;-92
2023/07/24 04:11:14;;;;;;;2.78;1.70;;;;;;;16.45;100.00;100199.69;4955941;28;20035;-94
2023/07/24 04:13:39;;;;;;;2.70;1.90;;;;;;;16.45;100.00;100204.09;4962196;28;20112;-93
2023/07/24 04:16:06;;;;;;;2.72;1.75;;;;;;;16.44;100.00;100197.97;4971521;28;20136;-92
2023/07/24 04:18:32;;;;;;;3.25;1.85;;;;;;;16.44;100.00;100210.28;4956140;28;20058;-94
2023/07/24 04:20:57;;;;;;;3.03;1.92;;;;;;;16.43;100.00;100217.28;4960488;28;20455;-92
2023/07/24 04:23:22;;;;;;;2.53;1.83;;;;;;;16.41;100.00;100213.09;4959562;28;20042;-94
2023/07/24 04:25:52;;;;;;;2.63;1.80;;;;;;;16.39;100.00;100226.31;4961177;28;20023;-92
2023/07/24 04:28:17;;;;;;;3.78;2.00;;;;;;;16.37;100.00;100225.56;4975853;28;20106;-93
2023/07/24 04:30:42;;;;;;;2.88;2.10;;;;;;;16.35;100.00;100220.38;4975176;28;20514;-93
2023/07/24 04:33:08;;;;;;;3.30;2.17;;;;;;;16.32;100.00;100214.47;4969804;28;20023;-92
2023/07/24 04:35:33;;;;;;;3.58;2.05;;;;;;;16.32;100.00;100217.09;4970915;28;20023;-93
2023/07/24 04:37:58;;;;;;;3.28;2.20;;;;;;;16.29;100.00;100212.03;4959123;28;20538;-94
2023/07/24 04:40:24;;;;;;;2.58;2.00;;;;;;;16.28;100.00;100207.72;4957189;28;20027;-91
2023/07/24 04:42:49;;;;;;;3.00;2.10;;;;;;;16.28;100.00;100212.97;4958058;28;20054;-92
2023/07/24 04:45:15;;;;;;;3.35;2.00;;;;;;;16.26;100.00;100220.94;4959461;28;20091;-91
2023/07/24 04:47:40;;;;;;;3.20;2.10;;;;;;;16.25;100.00;100216.63;4966897;28;20047;-92
2023/07/24 04:50:05;;;;;;;2.60;1.80;;;;;;;16.24;100.00;100223.66;4966153;28;20355;-92
2023/07/24 04:52:31;;;;;;;4.30;2.15;;;;;;;16.27;100.00;100225.25;4963962;28;20155;-92
2023/07/24 04:54:56;;;;;;;3.38;2.28;;;;;;;16.28;100.00;100223.47;4964993;28;20092;-92
2023/07/24 04:57:21;;;;;;;4.05;2.33;;;;;;;16.27;100.00;100216.53;4964354;28;20026;-92
2023/07/24 04:59:47;;;;;;;4.40;2.42;;;;;;;16.27;100.00;100220.00;4962294;28;20027;-91
2023/07/24 05:02:12;;;;;;;3.45;2.38;;;;;;;16.27;100.00;100208.66;4959942;28;20023;-92
2023/07/24 05:04:38;;;;;;;3.97;2.20;;;;;;;16.27;100.00;100208.66;4962531;28;20023;-91
2023/07/24 05:07:03;;;;;;;3.83;2.33;;;;;;;16.27;100.00;100214.78;4954990;28;20035;-92
2023/07/24 05:09:28;;;;;;;3.47;2.40;;;;;;;16.29;100.00;100219.91;4962942;28;20047;-91
2023/07/24 05:11:54;;;;;;;5.03;2.60;;;;;;;16.28;100.00;100221.72;4962834;28;21022;-92
2023/07/24 05:14:19;;;;;;;3.85;2.30;;;;;;;16.30;100.00;100222.47;4962808;28;20027;-92
2023/07/24 05:16:44;;;;;;;4.07;2.55;;;;;;;16.32;100.00;100215.31;4957102;28;20458;-92
2023/07/24 05:19:10;;;;;;;3.53;2.53;;;;;;;16.34;100.00;100234.44;4962692;28;20448;-92
2023/07/24 05:21:35;;;;;;;3.70;2.58;;;;;;;16.36;100.00;100226.50;4964992;28;20058;-92
2023/07/24 05:24:00;;;;;;;5.50;2.90;;;;;;;16.37;100.00;100233.44;4968636;28;20489;-92
2023/07/24 05:26:25;;;;;;;4.45;2.63;;;;;;;16.35;100.00;100230.88;4961813;28;20019;-91
2023/07/24 05:28:52;;;;;;;3.00;2.63;;;;;;;16.36;100.00;100234.38;4963962;28;20050;-92
2023/07/24 05:31:18;;;;;;;4.10;2.65;;;;;;;16.36;100.00;100239.63;4962678;28;20038;-92
2023/07/24 05:33:43;;;;;;;3.72;2.65;;;;;;;16.38;100.00;100243.00;4958291;28;20030;-92
2023/07/24 05:36:08;;;;;;;3.60;2.45;;;;;;;16.40;100.00;100241.09;4960996;28;20027;-92
2023/07/24 05:38:34;;;;;;;3.78;2.75;;;;;;;16.39;100.00;100231.56;4959372;28;20125;-91
2023/07/24 05:41:00;;;;;;;4.05;2.50;;;;;;;16.38;100.00;100235.13;4959810;28;20061;-94
2023/07/24 05:43:27;;;;;;;4.28;2.47;;;;;;;16.37;100.00;100238.69;4961201;28;20057;-93
2023/07/24 05:45:53;;;;;;;3.38;2.25;;;;;;;16.35;100.00;100236.13;4962637;28;20041;-91
2023/07/24 05:48:19;;;;;;;3.58;2.60;;;;;;;16.35;100.00;100236.13;4966389;28;20023;-93
2023/07/24 05:50:44;;;;;;;2.88;2.30;;;;;;;16.35;100.00;100240.56;4963850;28;20030;-93
2023/07/24 05:53:10;;;;;;;3.97;2.45;;;;;;;16.36;100.00;100239.63;4963863;28;20765;-92
2023/07/24 05:55:35;;;;;;;3.60;2.42;;;;;;;16.39;100.00;100244.69;4962937;28;20386;-93
2023/07/24 05:58:00;;;;;;;4.15;2.58;;;;;;;16.41;100.00;100244.59;4959242;28;20081;-93
2023/07/24 06:00:26;;;;;;;3.28;2.70;;;;;;;16.41;100.00;100248.03;4956450;28;20046;-92
2023/07/24 06:02:52;;;;;;;5.35;3.00;;;;;;;16.42;100.00;100251.53;4961316;28;20035;-92
2023/07/24 06:05:19;;;;;;;4.43;3.20;;;;;;;16.41;100.00;100250.66;4960491;28;20065;-93
2023/07/24 06:07:44;;;;;;;3.67;3.03;;;;;;;16.41;100.00;100255.09;4962221;28;20019;-92
2023/07/24 06:10:10;;;;;;;3.97;2.95;;;;;;;16.39;100.00;100253.41;4968075;28;20022;-91
2023/07/24 06:12:35;;;;;;;3.90;3.13;;;;;;;16.37;100.00;100255.28;4978402;28;20107;-93
2023/07/24 06:15:00;;;;;;;4.43;3.20;;;;;;;16.40;100.00;100256.84;4962462;28;20023;-94
2023/07/24 06:17:26;;;;;;;4.50;3.60;;;;;;;16.41;100.00;100255.91;4956106;28;20023;-92
2023/07/24 06:19:51;;;;;;;4.25;3.40;;;;;;;16.42;100.00;100248.91;4961257;28;20041;-91
2023/07/24 06:22:16;;;;;;;5.47;3.88;;;;;;;16.44;100.00;100250.50;4962105;28;20793;-92
2023/07/24 06:24:41;;;;;;;5.25;3.80;;;;;;;16.47;100.00;100252.94;4957880;28;20019;-93
2023/07/24 06:27:07;;;;;;;4.60;3.60;;;;;;;16.49;100.00;100248.44;4963511;28;20105;-93
2023/07/24 06:29:32;;;;;;;5.07;3.85;;;;;;;16.52;100.00;100253.50;4956537;28;20027;-94
2023/07/24 06:31:58;;;;;;;4.80;3.70;;;;;;;16.57;100.00;100255.03;4962647;28;20037;-93
2023/07/24 06:34:23;;;;;;;5.30;3.67;;;;;;;16.58;100.00;100256.69;4971663;28;20125;-94
2023/07/24 06:36:48;;;;;;;4.82;3.53;;;;;;;16.59;100.00;100258.38;4974265;28;20382;-94
2023/07/24 06:39:14;;;;;;;6.18;3.88;;;;;;;16.61;100.00;100256.50;4965045;28;20031;-93
2023/07/24 06:41:44;;;;;;;4.85;3.58;;;;;;;16.66;100.00;100257.09;4962661;28;20050;-95
2023/07/24 06:44:09;;;;;;;4.78;3.72;;;;;;;16.73;100.00;100271.53;4964978;28;20037;-93
2023/07/24 06:46:35;;;;;;;7.00;3.58;;;;;;;16.83;100.00;100259.53;4963682;28;20031;-94
2023/07/24 06:49:00;;;;;;;5.03;3.42;;;;;;;16.90;100.00;100256.53;4983132;28;20070;-93
2023/07/24 06:51:25;;;;;;;4.65;3.65;;;;;;;16.98;100.00;100260.41;4958538;28;20023;-96
2023/07/24 06:53:50;;;;;;;5.47;3.72;;;;;;;16.98;100.00;100249.88;4964936;28;20457;-93
2023/07/24 06:56:16;;;;;;;4.93;3.60;;;;;;;16.97;100.00;100258.72;4966479;28;20061;-94
2023/07/24 06:58:48;;;;;;;5.07;3.35;;;;;;;16.96;100.00;100258.78;4968836;28;20031;-95
2023/07/24 07:01:14;;;;;;;4.40;3.10;;;;;;;16.92;100.00;100254.63;4963988;28;20391;-94
2023/07/24 07:03:39;;;;;;;6.70;3.30;;;;;;;16.88;100.00;100253.97;4977734;28;20026;-95
2023/07/24 07:06:06;;;;;;;6.63;3.45;;;;;;;16.87;100.00;100251.47;4977773;28;20054;-92
2023/07/24 07:08:31;;;;;;;5.60;4.10;;;;;;;16.86;100.00;100255.03;4971216;28;20119;-93
2023/07/24 07:11:06;;;;;;;9.38;4.15;;;;;;;16.88;100.00;100258.41;4970912;28;20034;-93
2023/07/24 07:13:31;;;;;;;6.78;4.07;;;;;;;16.89;100.00;100262.72;4969868;28;20450;-94
2023/07/24 07:15:58;;;;;;;7.90;4.03;;;;;;;16.91;100.00;100263.47;4976878;28;20065;-92
2023/07/24 07:18:24;;;;;;;6.45;4.55;;;;;;;16.91;100.00;100260.84;4975511;28;20034;-95
2023/07/24 07:20:54;;;;;;;5.55;4.18;;;;;;;16.92;100.00;100262.50;4970145;28;20078;-93
2023/07/24 07:23:22;;;;;;;6.47;4.28;;;;;;;16.91;100.00;100258.22;4961245;28;20057;-94
2023/07/24 07:26:00;;;;;;;;;;;;;;;;;;;;;
2023/07/24 07:28:25;;;;;;;8.30;4.53;;;;;;;16.95;100.00;100260.59;4972063;28;20466;-93
2023/07/24 07:30:51;;;;;;;6.40;4.50;;;;;;;16.95;100.00;100255.34;4960893;28;20145;-93
2023/07/24 07:33:21;;;;;;;6.43;4.85;;;;;;;16.97;100.00;100257.84;4963013;28;20057;-93
2023/07/24 07:35:51;;;;;;;9.25;5.20;;;;;;;16.99;100.00;100255.97;4957347;28;20027;-94
2023/07/24 07:38:29;;;;;;;;;;;;;;;;;;;;;
2023/07/24 07:41:11;;;;;;;7.18;4.70;;;;;;;16.97;100.00;100244.72;4965689;28;20095;-95
2023/07/24 07:43:38;;;;;;;5.75;3.85;;;;;;;16.94;99.52;100244.88;4965175;28;20030;-93
2023/07/24 07:46:06;;;;;;;6.55;3.25;;;;;;;16.93;98.75;100245.81;4964304;28;20110;-92
2023/07/24 07:48:41;;;;;;;5.03;3.45;;;;;;;16.94;99.10;100252.75;4959745;28;20027;-93
2023/07/24 07:51:11;;;;;;;6.03;3.15;;;;;;;16.94;99.34;100243.09;4959280;28;20030;-93
2023/07/24 07:53:40;;;;;;;4.97;3.20;;;;;;;16.98;100.00;100251.66;4957230;28;20082;-94
2023/07/24 07:56:05;;;;;;;6.95;2.92;;;;;;;17.01;100.00;100258.50;4967695;28;20475;-95
2023/07/24 07:58:30;;;;;;;4.78;3.45;;;;;;;17.07;100.00;100256.34;4967538;28;20039;-93
2023/07/24 08:00:56;;;;;;;4.32;3.00;;;;;;;17.12;100.00;100246.38;4961853;28;20065;-92
2023/07/24 08:03:34;;;;;;;;;;;;;;;;;;;;;
2023/07/24 08:06:12;;;;;;;;;;;;;;;;;;;;;
2023/07/24 08:08:38;;;;;;;5.28;2.47;;;;;;;17.37;98.28;100252.72;4959685;28;20019;-93
2023/07/24 08:11:07;;;;;;;3.40;2.28;;;;;;;17.42;98.84;100242.72;4963866;28;20121;-93
2023/07/24 08:13:42;;;;;;;4.45;2.70;;;;;;;17.41;96.68;100241.06;4964001;28;20424;-94
2023/07/24 08:16:20;;;;;;;3.88;2.50;;;;;;;17.44;97.55;100256.63;4962400;28;20035;-93
2023/07/24 08:18:48;;;;;;;3.05;2.33;;;;;;;17.44;96.19;100248.75;4979207;28;20101;-93
2023/07/24 08:21:14;;;;;;;3.70;2.47;;;;;;;17.51;97.44;100257.06;4959859;28;20030;-94
2023/07/24 08:23:44;;;;;;;2.80;2.10;;;;;;;17.57;96.93;100261.13;4963967;28;20466;-93
2023/07/24 08:26:17;;;;;;;3.63;2.45;;;;;;;17.64;96.64;100262.41;4960590;28;20074;-93
2023/07/24 08:28:43;;;;;;;3.97;2.78;;;;;;;17.64;94.49;100261.56;4959322;28;20034;-94
2023/07/24 08:31:10;;;;;;;4.60;2.97;;;;;;;17.64;93.15;100262.41;4964044;28;20023;-93
2023/07/24 08:33:38;;;;;;;4.32;3.03;;;;;;;17.68;92.60;100248.09;4956371;28;20435;-94
2023/07/24 08:36:16;;;;;;;4.00;3.00;;;;;;;17.78;92.86;100247.50;4953690;28;20518;-94
2023/07/24 08:38:42;;;;;;;5.60;3.38;;;;;;;17.87;92.66;100246.91;4956875;28;20090;-93
2023/07/24 08:41:15;;;;;;;5.47;3.80;;;;;;;17.94;92.01;100258.69;4963112;28;20031;-94
2023/07/24 08:43:44;;;;;;;5.25;4.13;;;;;;;17.97;90.21;100250.59;4961081;28;20050;-93
2023/07/24 08:46:12;;;;;;;6.28;4.07;;;;;;;18.00;90.39;100247.78;4964035;28;20140;-93
2023/07/24 08:48:42;;;;;;;5.03;3.95;;;;;;;18.04;89.15;100244.03;4957944;28;20043;-94
2023/07/24 08:51:09;;;;;;;6.22;4.20;;;;;;;18.10;89.29;100249.84;4959675;28;20034;-95
2023/07/24 08:53:42;;;;;;;6.82;4.78;;;;;;;18.13;90.25;100239.94;4964898;28;20053;-92
2023/07/24 08:56:12;;;;;;;5.80;4.50;;;;;;;18.21;90.67;100239.41;4963403;28;20035;-94
2023/07/24 08:58:44;;;;;;;5.97;4.35;;;;;;;18.29;89.79;100241.53;4960036;28;20035;-95
2023/07/24 09:01:09;;;;;;;5.82;4.45;;;;;;;18.31;88.29;100240.47;4963987;28;20042;-92
2023/07/24 09:03:35;;;;;;;5.57;4.45;;;;;;;18.28;87.20;100245.94;4962411;28;20130;-91
2023/07/24 09:06:10;;;;;;;4.68;3.60;;;;;;;18.26;87.91;100245.22;4964431;28;20027;-94
2023/07/24 09:08:38;;;;;;;6.25;4.00;;;;;;;18.25;87.68;100238.25;4961837;28;20031;-93
2023/07/24 09:11:07;;;;;;;5.38;4.20;;;;;;;18.29;88.31;100242.34;4962932;28;20031;-93
2023/07/24 09:13:36;;;;;;;8.90;4.45;;;;;;;18.31;87.32;100232.56;4962666;28;20113;-93
2023/07/24 09:16:01;;;;;;;6.38;4.18;;;;;;;18.34;87.10;100224.47;4963395;28;20046;-92
2023/07/24 09:18:26;;;;;;;5.50;4.03;;;;;;;18.38;87.61;100219.81;4965286;28;20023;-92
2023/07/24 09:20:52;;;;;;;6.28;3.88;;;;;;;18.38;86.52;100222.44;4961304;28;20043;-91
2023/07/24 09:23:27;;;;;;;5.03;4.00;;;;;;;18.31;86.72;100216.75;4962399;28;20019;-91
2023/07/24 09:25:55;;;;;;;5.50;4.18;;;;;;;18.32;87.66;100205.28;4964740;28;20023;-94
2023/07/24 09:28:20;;;;;;;5.55;4.30;;;;;;;18.37;87.25;100201.50;4962148;28;20105;-92
2023/07/24 09:31:00;;;;;;;5.00;3.85;;;;;;;18.44;87.25;100200.13;4965008;28;20042;-93
2023/07/24 09:33:36;;;;;;;5.95;4.38;;;;;;;18.53;88.66;100198.66;4967398;28;20494;-92
2023/07/24 09:36:07;;;;;;;5.15;3.95;;;;;;;18.61;85.59;100194.53;4965476;28;20034;-91
2023/07/24 09:38:33;;;;;;;;;;;;;;;18.77;88.69;100177.66;4963910;28;20030;-95
2023/07/24 09:41:01;;;;;;;5.15;3.60;;;;;;;18.82;85.98;100186.03;4963851;28;20033;-92
2023/07/24 09:43:28;;;;;;;6.20;3.72;;;;;;;18.84;84.55;100194.69;4964014;28;20046;-92
2023/07/24 09:45:54;;;;;;;5.53;3.40;;;;;;;18.79;84.86;100184.47;4961170;28;20474;-92
2023/07/24 09:48:22;;;;;;;4.50;3.30;;;;;;;18.77;84.85;100178.47;4962241;28;20552;-93
2023/07/24 09:50:49;;;;;;;5.22;3.80;;;;;;;18.72;83.80;100182.38;4963494;28;20038;-92
2023/07/24 09:53:33;;;;;;;4.45;3.22;;;;;;;18.68;83.95;100173.88;4962327;28;20400;-92
2023/07/24 09:56:02;;;;;;;5.95;3.20;;;;;;;18.63;85.41;100162.81;4963427;28;20467;-93
2023/07/24 09:58:29;;;;;;;5.10;3.08;;;;;;;18.55;83.24;100158.06;4963729;28;20061;-92
2023/07/24 10:00:54;;;;;;;4.30;3.10;;;;;;;18.52;85.06;100158.28;4962866;28;20113;-92
2023/07/24 10:03:22;;;;;;;5.13;3.22;;;;;;;18.52;85.06;100165.38;4956639;28;20122;-92
2023/07/24 10:05:48;;;;;;;4.40;3.05;;;;;;;18.53;84.94;100167.88;4961800;28;20034;-92
2023/07/24 10:08:20;;;;;;;6.72;2.92;;;;;;;18.51;84.92;100153.97;4961012;28;20498;-94
2023/07/24 10:10:46;;;;;;;4.07;2.97;;;;;;;18.51;84.34;100146.06;4960623;28;20065;-92
2023/07/24 10:13:14;;;;;;;5.28;3.10;;;;;;;18.51;85.39;100153.97;4965291;28;20470;-90
2023/07/24 10:15:41;;;;;;;4.38;2.95;;;;;;;18.50;85.56;100158.41;4961180;28;20034;-91
2023/07/24 10:18:08;;;;;;;4.18;3.03;;;;;;;18.52;85.63;100152.19;4961664;28;20046;-92
2023/07/24 10:20:38;;;;;;;5.55;3.28;;;;;;;18.51;85.12;100161.88;4960423;28;20042;-91
2023/07/24 10:23:04;;;;;;;4.63;3.00;;;;;;;18.50;85.17;100171.56;4958324;28;20501;-91
2023/07/24 10:25:35;;;;;;;3.65;2.83;;;;;;;18.47;84.29;100187.59;4962304;28;20471;-91
2023/07/24 10:28:10;;;;;;;4.15;2.47;;;;;;;18.42;83.77;100188.88;4960954;28;20039;-91
2023/07/24 10:30:36;;;;;;;5.15;2.70;;;;;;;18.37;84.47;100193.59;4963899;28;20038;-92
2023/07/24 10:33:34;;;;;;;;;;;;;;;;;;;;;
2023/07/24 10:36:19;;;;;;;5.88;2.90;;;;;;;18.30;85.58;100199.28;4961580;28;20031;-94
2023/07/24 10:38:45;;;;;;;4.68;2.53;;;;;;;18.27;86.25;100194.25;4960588;28;21098;-94
2023/07/24 10:41:11;;;;;;;4.35;2.53;;;;;;;18.24;85.50;100186.56;4956079;28;20034;-92
2023/07/24 10:43:48;;;;;;;3.75;2.88;;;;;;;18.25;86.54;100175.06;4958979;28;20073;-94
2023/07/24 10:46:14;;;;;;;4.25;3.05;;;;;;;18.28;85.37;100179.28;4962445;28;20026;-93
2023/07/24 10:48:45;;;;;;;5.25;2.70;;;;;;;18.31;85.64;100193.06;4988715;28;20035;-92
2023/07/24 10:51:13;;;;;;;8.68;2.63;;;;;;;18.39;85.46;100199.59;4972547;28;20043;-94
2023/07/24 10:53:45;;;;;;;3.88;2.60;;;;;;;18.43;85.27;100207.19;4963230;28;20047;-92
2023/07/24 10:56:10;;;;;;;3.55;2.42;;;;;;;18.44;83.96;100216.78;4960636;28;20030;-91
2023/07/24 10:58:36;;;;;;;3.95;2.70;;;;;;;18.43;84.76;100222.16;4967087;28;20449;-94
2023/07/24 11:01:04;;;;;;;5.13;2.67;;;;;;;18.40;84.49;100219.72;4964722;28;20038;-93
2023/07/24 11:03:43;;;;;;;3.60;2.30;;;;;;;18.37;84.32;100217.31;4958069;28;20123;-95
2023/07/24 11:06:19;;;;;;;4.22;2.38;;;;;;;18.39;84.99;100204.88;4957408;28;20199;-92
2023/07/24 11:08:53;;;;;;;5.57;2.70;;;;;;;18.43;84.56;100206.34;4958219;28;20082;-90
2023/07/24 11:11:18;;;;;;;4.30;2.72;;;;;;;18.47;83.49;100205.16;4958446;28;20060;-91
2023/07/24 11:13:43;;;;;;;4.63;2.75;;;;;;;18.51;84.69;100204.00;4960883;28;20054;-92
2023/07/24 11:16:08;;;;;;;4.35;2.83;;;;;;;18.54;84.26;100203.81;4958818;28;20030;-91
2023/07/24 11:18:47;;;;;;;4.57;3.30;;;;;;;18.56;83.86;100188.75;4958533;28;20557;-92
2023/07/24 11:21:15;;;;;;;3.65;3.00;;;;;;;18.58;83.60;100184.22;4958898;28;20245;-95
2023/07/24 11:23:54;;;;;;;4.53;2.95;;;;;;;18.64;84.77;100185.56;4964300;28;20062;-92
2023/07/24 11:26:25;;;;;;;4.95;3.17;;;;;;;18.71;83.04;100196.50;4972666;28;20098;-96
2023/07/24 11:28:51;;;;;;;4.65;3.38;;;;;;;18.73;82.90;100202.53;4968548;28;20030;-93
2023/07/24 11:31:19;;;;;;;5.35;3.30;;;;;;;18.80;84.09;100206.38;4965808;28;20039;-93
2023/07/24 11:33:46;;;;;;;5.30;3.28;;;;;;;18.84;82.89;100199.97;4962158;28;20034;-93
2023/07/24 11:36:12;;;;;;;7.53;3.30;;;;;;;18.87;82.64;100194.47;4964390;28;20081;-92
2023/07/24 11:38:38;;;;;;;5.95;3.33;;;;;;;18.90;81.26;100193.41;4962644;28;20033;-93
2023/07/24 11:41:06;;;;;;;5.20;3.60;;;;;;;18.91;81.15;100195.09;4963743;28;20065;-92
2023/07/24 11:43:32;;;;;;;5.25;3.70;;;;;;;18.91;81.01;100201.22;4962078;28;20027;-91
2023/07/24 11:45:57;;;;;;;4.43;3.60;;;;;;;18.94;82.87;100197.50;4958045;28;20027;-92
2023/07/24 11:51:00;;;;;;;4.85;3.80;;;;;;;19.06;80.78;100198.47;4957802;23;20195;-94
2023/07/24 11:53:27;;;;;;;4.80;3.72;;;;;;;19.13;80.89;100201.50;4929207;29;20040;-92
2023/07/24 11:55:56;;;;;;;6.05;4.00;;;;;;;19.13;81.26;100197.06;4923539;29;20054;-93
2023/07/24 11:58:25;;;;;;;5.82;4.30;;;;;;;19.15;81.27;100199.59;4925446;29;20058;-91
2023/07/24 12:00:53;;;;;;;6.28;4.55;;;;;;;19.16;81.48;100183.66;4929190;29;20065;-94
2023/07/24 12:03:24;;;;;;;6.65;4.32;;;;;;;19.23;81.45;100189.31;4929757;29;20443;-91
2023/07/24 12:05:50;;;;;;;4.72;3.90;;;;;;;19.28;80.40;100175.81;4930918;29;21406;-92
2023/07/24 12:08:17;;;;;;;5.03;4.07;;;;;;;19.33;80.26;100189.50;4922605;29;20054;-93
2023/07/24 12:10:43;;;;;;;5.10;3.88;;;;;;;19.40;80.49;100180.19;4922127;29;20538;-93
2023/07/24 12:13:09;;;;;;;5.88;3.92;;;;;;;19.44;79.50;100176.38;4923280;29;20032;-92
2023/07/24 12:15:35;;;;;;;6.43;4.47;;;;;;;19.45;80.02;100180.69;4919793;29;20748;-89